Time;durP1;ratioP1;P1;durP2;ratioP2;P2;SDS_P1;SDS_P2;PMS_P1;PMS_P2;Temp;Humidity;BMP_temperature;BMP_pressure;BME280_temperature;BME280_humidity;BME280_pressure;Samples;Min_cycle;Max_cycle;Signal;HPM_P1;HPM_P2
2022/10/19 00:01:53;;;;;;;;;;;16.70;99.90;;;;;;5032000;28;19913;-93
2022/10/19 00:04:19;;;;;;;;;;;16.70;99.90;;;;;;5041640;28;19912;-92
2022/10/19 00:06:45;;;;;;;;;;;16.80;99.90;;;;;;5052789;28;19967;-93
2022/10/19 00:09:12;;;;;;;;;;;16.80;99.90;;;;;;5036675;28;20011;-93
2022/10/19 00:11:39;;;;;;;;;;;16.80;99.90;;;;;;5032084;28;19921;-92
2022/10/19 00:14:05;;;;;;;;;;;16.70;99.90;;;;;;5041910;28;19917;-91
2022/10/19 00:16:33;;;;;;;;;;;16.70;99.90;;;;;;5034190;28;19920;-90
2022/10/19 00:18:59;;;;;;;;;;;16.70;99.90;;;;;;5040301;28;19923;-91
2022/10/19 00:21:25;;;;;;;;;;;16.60;99.90;;;;;;5035539;28;19916;-91
2022/10/19 00:23:50;;;;;;;;;;;16.60;99.90;;;;;;5047311;28;19927;-91
2022/10/19 00:26:16;;;;;;;;;;;16.60;99.90;;;;;;5053345;28;20674;-91
2022/10/19 00:28:42;;;;;;;;;;;16.60;99.90;;;;;;5035639;28;20500;-92
2022/10/19 00:31:12;;;;;;;;;;;16.50;99.90;;;;;;5044052;28;19913;-91
2022/10/19 00:33:38;;;;;;;;;;;16.40;99.90;;;;;;5037638;28;19917;-92
2022/10/19 00:36:04;;;;;;;;;;;16.30;99.90;;;;;;5036579;28;20335;-92
2022/10/19 00:38:29;;;;;;;;;;;16.40;99.90;;;;;;5064345;28;20403;-92
2022/10/19 00:40:55;;;;;;;;;;;16.40;99.90;;;;;;5057188;28;19917;-93
2022/10/19 00:43:23;;;;;;;;;;;16.20;99.90;;;;;;5037489;28;19956;-92
2022/10/19 00:45:48;;;;;;;;;;;16.20;99.90;;;;;;5041844;28;20004;-93
2022/10/19 00:48:16;;;;;;;;;;;16.10;99.90;;;;;;5044528;28;19958;-93
2022/10/19 00:50:42;;;;;;;;;;;16.00;99.90;;;;;;5023136;28;19917;-94
2022/10/19 00:53:07;;;;;;;;;;;16.00;99.90;;;;;;5042995;28;19917;-91
2022/10/19 00:55:33;;;;;;;;;;;16.00;99.90;;;;;;5037207;28;19917;-92
2022/10/19 00:58:01;;;;;;;;;;;16.10;99.90;;;;;;5061830;28;19913;-92
2022/10/19 01:00:26;;;;;;;;;;;16.10;99.90;;;;;;5038031;28;20000;-92
2022/10/19 01:02:52;;;;;;;;;;;16.00;99.90;;;;;;5037112;28;19952;-91
2022/10/19 01:05:18;;;;;;;;;;;16.00;99.90;;;;;;5043516;28;20666;-93
2022/10/19 01:07:43;;;;;;;;;;;16.00;99.90;;;;;;5042235;28;20534;-93
2022/10/19 01:10:09;;;;;;;;;;;16.00;99.90;;;;;;5037223;28;19921;-93
2022/10/19 01:12:41;;;;;;;;;;;15.90;99.90;;;;;;5048952;28;19916;-91
2022/10/19 01:15:33;;;;;;;;;;;15.90;99.90;;;;;;5045887;28;19924;-92
2022/10/19 01:18:16;;;;;;;;;;;16.00;99.90;;;;;;5021607;28;19916;-90
2022/10/19 01:21:00;;;;;;;;;;;15.90;99.90;;;;;;5059915;28;20383;-90
2022/10/19 01:23:25;;;;;;;;;;;15.70;99.90;;;;;;5050618;28;19917;-90
2022/10/19 01:25:55;;;;;;;;;;;15.60;99.90;;;;;;5044223;28;19923;-93
2022/10/19 01:28:37;;;;;;;;;;;15.60;99.90;;;;;;5038732;28;19916;-91
2022/10/19 01:31:08;;;;;;;;;;;15.60;99.90;;;;;;5044190;28;20651;-92
2022/10/19 01:34:09;;;;;;;;;;;15.70;99.90;;;;;;5037905;28;19913;-93
2022/10/19 01:36:35;;;;;;;;;;;15.60;99.90;;;;;;4973337;28;20398;-91
2022/10/19 01:39:04;;;;;;;;;;;15.50;99.90;;;;;;5030599;28;19924;-89
2022/10/19 01:41:30;;;;;;;;;;;15.50;99.90;;;;;;5040694;28;19999;-90
2022/10/19 01:43:58;;;;;;;;;;;15.40;99.90;;;;;;5045826;28;20006;-93
2022/10/19 01:46:36;;;;;;;;;;;15.40;99.90;;;;;;5035732;28;19913;-93
2022/10/19 01:49:15;;;;;;;;;;;15.30;99.90;;;;;;5046374;28;20695;-90
2022/10/19 01:51:43;;;;;;;;;;;15.20;99.90;;;;;;5041998;28;19913;-89
2022/10/19 01:54:11;;;;;;;;;;;15.20;99.90;;;;;;5036661;28;20703;-93
2022/10/19 01:56:38;;;;;;;;;;;15.30;99.90;;;;;;5041089;28;20368;-91
2022/10/19 01:59:06;;;;;;;;;;;15.30;99.90;;;;;;5048769;28;19912;-94
2022/10/19 02:01:33;;;;;;;;;;;15.20;99.90;;;;;;5050995;28;20447;-94
2022/10/19 02:03:59;;;;;;;;;;;15.20;99.90;;;;;;5050030;28;19909;-94
2022/10/19 02:06:24;;;;;;;;;;;15.20;99.90;;;;;;5041685;28;20000;-89
2022/10/19 02:08:51;;;;;;;;;;;15.10;99.90;;;;;;5053903;28;20563;-88
2022/10/19 02:11:18;;;;;;;;;;;15.00;99.90;;;;;;5048403;28;19991;-89
2022/10/19 02:13:44;;;;;;;;;;;15.00;99.90;;;;;;5051111;28;19921;-89
2022/10/19 02:16:22;;;;;;;;;;;15.00;99.90;;;;;;5031969;28;20046;-90
2022/10/19 02:18:49;;;;;;;;;;;15.00;99.90;;;;;;5047085;28;19928;-88
2022/10/19 02:21:15;;;;;;;;;;;15.00;99.90;;;;;;5053586;28;19927;-90
2022/10/19 02:23:40;;;;;;;;;;;15.00;99.90;;;;;;5034797;28;19917;-87
2022/10/19 02:26:06;;;;;;;;;;;14.90;99.90;;;;;;5050165;28;19919;-87
2022/10/19 02:28:32;;;;;;;;;;;14.80;99.90;;;;;;5048149;28;19917;-89
2022/10/19 02:30:58;;;;;;;;;;;14.80;99.90;;;;;;5049289;28;19969;-88
2022/10/19 02:33:24;;;;;;;;;;;14.80;99.90;;;;;;5051172;28;19916;-88
2022/10/19 02:35:50;;;;;;;;;;;14.80;99.90;;;;;;5055399;28;19927;-89
2022/10/19 02:38:17;;;;;;;;;;;14.80;99.90;;;;;;5051313;28;19955;-88
2022/10/19 02:40:47;;;;;;;;;;;14.90;99.90;;;;;;5051554;28;20006;-90
2022/10/19 02:43:18;;;;;;;;;;;14.80;99.90;;;;;;5045593;28;19931;-89
2022/10/19 02:46:04;;;;;;;;;;;14.80;99.90;;;;;;5035523;28;19917;-89
2022/10/19 02:48:32;;;;;;;;;;;14.80;99.90;;;;;;5051264;28;20017;-89
2022/10/19 02:50:57;;;;;;;;;;;14.80;99.90;;;;;;5037305;28;19917;-90
2022/10/19 02:53:23;;;;;;;;;;;14.80;99.90;;;;;;5054661;28;20273;-89
2022/10/19 02:55:49;;;;;;;;;;;14.70;99.90;;;;;;5032667;28;19917;-88
2022/10/19 02:58:15;;;;;;;;;;;14.70;99.90;;;;;;5031498;28;19923;-89
2022/10/19 03:00:40;;;;;;;;;;;14.70;99.90;;;;;;5033426;28;19913;-89
2022/10/19 03:03:06;;;;;;;;;;;14.60;99.90;;;;;;5040846;28;19923;-89
2022/10/19 03:05:31;;;;;;;;;;;14.70;99.90;;;;;;5050089;28;20012;-89
2022/10/19 03:07:57;;;;;;;;;;;14.70;99.90;;;;;;5036998;28;19917;-88
2022/10/19 03:10:23;;;;;;;;;;;14.80;99.90;;;;;;5049595;28;19932;-88
2022/10/19 03:12:48;;;;;;;;;;;14.70;99.90;;;;;;5056099;28;19938;-88
2022/10/19 03:15:17;;;;;;;;;;;14.70;99.90;;;;;;5050927;28;19979;-88
2022/10/19 03:17:43;;;;;;;;;;;14.60;99.90;;;;;;5047559;28;19920;-88
2022/10/19 03:20:09;;;;;;;;;;;14.60;99.90;;;;;;5051489;28;20780;-91
2022/10/19 03:22:34;;;;;;;;;;;14.60;99.90;;;;;;5029635;28;19924;-92
2022/10/19 03:25:00;;;;;;;;;;;14.60;99.90;;;;;;5031352;28;19917;-92
2022/10/19 03:27:26;;;;;;;;;;;14.50;99.90;;;;;;5037773;28;19917;-90
2022/10/19 03:29:51;;;;;;;;;;;14.50;99.90;;;;;;5060054;28;19913;-90
2022/10/19 03:32:17;;;;;;;;;;;14.50;99.90;;;;;;5052622;28;20763;-90
2022/10/19 03:34:42;;;;;;;;;;;14.60;99.90;;;;;;5051830;28;20074;-92
2022/10/19 03:37:08;;;;;;;;;;;14.70;99.90;;;;;;5036865;28;19923;-90
2022/10/19 03:39:33;;;;;;;;;;;14.60;99.90;;;;;;5040775;28;19912;-92
2022/10/19 03:41:59;;;;;;;;;;;14.60;99.90;;;;;;5043532;28;19917;-92
2022/10/19 03:44:25;;;;;;;;;;;14.70;99.90;;;;;;5052396;28;19917;-94
2022/10/19 03:46:50;;;;;;;;;;;14.60;99.90;;;;;;5046270;28;20047;-93
2022/10/19 03:49:16;;;;;;;;;;;14.60;99.90;;;;;;5041281;28;19913;-91
2022/10/19 03:51:41;;;;;;;;;;;14.50;99.90;;;;;;5036681;28;19924;-90
2022/10/19 03:54:11;;;;;;;;;;;14.60;99.90;;;;;;5037074;28;19944;-92
2022/10/19 03:56:36;;;;;;;;;;;14.50;99.90;;;;;;5043167;28;20354;-90
2022/10/19 03:59:03;;;;;;;;;;;14.50;99.90;;;;;;5044610;28;20015;-91
2022/10/19 04:01:30;;;;;;;;;;;14.40;99.90;;;;;;5036526;28;19966;-92
2022/10/19 04:03:57;;;;;;;;;;;14.50;99.90;;;;;;5037415;28;19946;-92
2022/10/19 04:06:24;;;;;;;;;;;14.50;99.90;;;;;;5048588;28;20455;-90
2022/10/19 04:08:49;;;;;;;;;;;14.40;99.90;;;;;;5044527;28;20331;-90
2022/10/19 04:11:16;;;;;;;;;;;14.40;99.90;;;;;;5053721;28;19924;-90
2022/10/19 04:13:41;;;;;;;;;;;14.40;99.90;;;;;;5035460;28;19917;-88
2022/10/19 04:16:08;;;;;;;;;;;14.50;99.90;;;;;;5034341;28;20351;-91
2022/10/19 04:18:34;;;;;;;;;;;14.60;99.90;;;;;;5040179;28;19920;-91
2022/10/19 04:21:01;;;;;;;;;;;14.50;99.90;;;;;;5042254;28;19973;-91
2022/10/19 04:23:28;;;;;;;;;;;14.40;99.90;;;;;;5049257;28;19917;-90
2022/10/19 04:26:00;;;;;;;;;;;14.50;99.90;;;;;;5036177;28;19921;-88
2022/10/19 04:28:26;;;;;;;;;;;14.40;99.90;;;;;;5025522;28;19913;-89
2022/10/19 04:30:52;;;;;;;;;;;14.40;99.90;;;;;;5051996;28;20387;-90
2022/10/19 04:33:17;;;;;;;;;;;14.30;99.90;;;;;;5035242;28;19924;-90
2022/10/19 04:35:43;;;;;;;;;;;14.30;99.90;;;;;;5038298;28;19925;-89
2022/10/19 04:38:08;;;;;;;;;;;14.30;99.90;;;;;;5053564;28;19998;-93
2022/10/19 04:40:35;;;;;;;;;;;14.30;99.90;;;;;;5035724;28;19920;-82
2022/10/19 04:43:01;;;;;;;;;;;14.30;99.90;;;;;;5035297;28;19912;-86
2022/10/19 04:45:26;;;;;;;;;;;14.40;99.90;;;;;;5034820;28;19916;-83
2022/10/19 04:47:55;;;;;;;;;;;14.40;99.90;;;;;;5057620;28;20574;-84
2022/10/19 04:50:21;;;;;;;;;;;14.40;99.90;;;;;;5034615;28;20625;-87
2022/10/19 04:52:47;;;;;;;;;;;14.50;99.90;;;;;;5061026;28;19966;-88
2022/10/19 04:55:12;;;;;;;;;;;14.40;99.90;;;;;;5034099;28;19979;-87
2022/10/19 04:57:38;;;;;;;;;;;14.40;99.90;;;;;;5052576;28;19924;-85
2022/10/19 05:00:04;;;;;;;;;;;14.20;99.90;;;;;;5042864;28;20212;-83
2022/10/19 05:02:29;;;;;;;;;;;14.20;99.90;;;;;;5056057;28;19920;-84
2022/10/19 05:04:55;;;;;;;;;;;14.20;99.90;;;;;;5043420;28;19916;-84
2022/10/19 05:07:20;;;;;;;;;;;14.20;99.90;;;;;;5035624;28;20044;-85
2022/10/19 05:09:46;;;;;;;;;;;14.20;99.90;;;;;;5054082;28;19968;-84
2022/10/19 05:12:11;;;;;;;;;;;14.10;99.90;;;;;;5050461;28;20672;-86
2022/10/19 05:14:37;;;;;;;;;;;14.30;99.90;;;;;;5051596;28;20429;-85
2022/10/19 05:17:02;;;;;;;;;;;14.20;99.90;;;;;;5035055;28;19987;-83
2022/10/19 05:19:28;;;;;;;;;;;14.20;99.90;;;;;;5056300;28;19913;-84
2022/10/19 05:21:53;;;;;;;;;;;14.20;99.90;;;;;;5050293;28;19919;-83
2022/10/19 05:24:19;;;;;;;;;;;14.20;99.90;;;;;;5049966;28;20011;-87
2022/10/19 05:26:44;;;;;;;;;;;14.30;99.90;;;;;;5052354;28;19924;-85
2022/10/19 05:29:11;;;;;;;;;;;14.30;99.90;;;;;;5050032;28;19920;-83
2022/10/19 05:31:37;;;;;;;;;;;14.10;99.90;;;;;;5034757;28;19921;-82
2022/10/19 05:34:03;;;;;;;;;;;14.10;99.90;;;;;;5032352;28;19916;-83
2022/10/19 05:36:35;;;;;;;;;;;14.20;99.90;;;;;;5050193;28;20339;-83
2022/10/19 05:39:03;;;;;;;;;;;14.20;99.90;;;;;;5049960;28;19919;-84
2022/10/19 05:41:28;;;;;;;;;;;14.10;99.90;;;;;;5049665;28;20394;-84
2022/10/19 05:43:55;;;;;;;;;;;14.00;99.90;;;;;;5054107;28;19913;-84
2022/10/19 05:46:21;;;;;;;;;;;14.10;99.90;;;;;;5048797;28;20058;-84
2022/10/19 05:48:47;;;;;;;;;;;14.00;99.90;;;;;;5045646;28;19913;-83
2022/10/19 05:51:14;;;;;;;;;;;13.90;99.90;;;;;;5051685;28;19924;-83
2022/10/19 05:53:40;;;;;;;;;;;14.10;99.90;;;;;;5031434;28;20002;-83
2022/10/19 05:56:07;;;;;;;;;;;14.20;99.90;;;;;;5031006;28;19932;-83
2022/10/19 05:58:33;;;;;;;;;;;14.20;99.90;;;;;;5031158;28;19917;-82
2022/10/19 06:00:59;;;;;;;;;;;14.40;99.90;;;;;;5048467;28;19913;-83
2022/10/19 06:03:25;;;;;;;;;;;14.30;99.90;;;;;;5031217;28;19913;-82
2022/10/19 06:05:51;;;;;;;;;;;14.30;99.90;;;;;;5047153;28;19928;-82
2022/10/19 06:08:18;;;;;;;;;;;14.30;99.90;;;;;;5027516;28;19993;-83
2022/10/19 06:10:44;;;;;;;;;;;14.30;99.90;;;;;;5046998;28;19975;-83
2022/10/19 06:13:10;;;;;;;;;;;14.40;99.90;;;;;;5045994;28;19963;-83
2022/10/19 06:15:38;;;;;;;;;;;14.30;99.90;;;;;;5045171;28;19976;-83
2022/10/19 06:18:11;;;;;;;;;;;14.40;99.90;;;;;;5030838;28;19959;-82
2022/10/19 06:20:38;;;;;;;;;;;14.50;99.90;;;;;;5048126;28;19913;-84
2022/10/19 06:23:04;;;;;;;;;;;14.50;99.90;;;;;;5030686;28;19928;-83
2022/10/19 06:25:30;;;;;;;;;;;14.50;99.90;;;;;;5048387;28;20340;-84
2022/10/19 06:27:56;;;;;;;;;;;14.70;99.90;;;;;;5025143;28;19923;-84
2022/10/19 06:30:21;;;;;;;;;;;14.70;99.90;;;;;;5044726;28;19917;-84
2022/10/19 06:32:47;;;;;;;;;;;14.80;99.90;;;;;;5049042;28;20146;-83
2022/10/19 06:35:12;;;;;;;;;;;15.00;99.90;;;;;;5052724;28;19951;-84
2022/10/19 06:37:38;;;;;;;;;;;15.20;99.90;;;;;;5056502;28;20383;-86
2022/10/19 06:40:04;;;;;;;;;;;15.20;99.90;;;;;;5048764;28;19920;-84
2022/10/19 06:42:29;;;;;;;;;;;15.10;99.90;;;;;;5048979;28;19913;-88
2022/10/19 06:44:55;;;;;;;;;;;14.80;99.90;;;;;;5054528;28;19923;-86
2022/10/19 06:47:20;;;;;;;;;;;14.80;99.90;;;;;;5031372;28;19922;-84
2022/10/19 06:49:46;;;;;;;;;;;14.90;99.90;;;;;;5029517;28;20631;-83
2022/10/19 06:52:11;;;;;;;;;;;14.80;99.90;;;;;;5047919;28;19919;-83
2022/10/19 06:54:37;;;;;;;;;;;14.70;99.90;;;;;;5047938;28;19924;-84
2022/10/19 06:57:02;;;;;;;;;;;14.70;99.90;;;;;;5047299;28;19917;-84
2022/10/19 06:59:28;;;;;;;;;;;14.70;99.90;;;;;;5030302;28;19932;-84
2022/10/19 07:01:53;;;;;;;;;;;14.70;99.90;;;;;;5047819;28;19909;-84
2022/10/19 07:04:19;;;;;;;;;;;14.70;99.90;;;;;;5048514;28;19913;-84
2022/10/19 07:06:45;;;;;;;;;;;14.70;99.90;;;;;;5047556;28;19919;-83
2022/10/19 07:09:10;;;;;;;;;;;14.70;99.90;;;;;;5047808;28;20350;-84
2022/10/19 07:11:36;;;;;;;;;;;14.80;99.90;;;;;;5047769;28;20043;-84
2022/10/19 07:14:01;;;;;;;;;;;14.80;99.90;;;;;;5029981;28;19916;-84
2022/10/19 07:16:27;;;;;;;;;;;14.90;99.90;;;;;;5029503;28;19928;-84
2022/10/19 07:18:52;;;;;;;;;;;15.00;99.90;;;;;;5048512;28;19919;-84
2022/10/19 07:21:19;;;;;;;;;;;15.20;99.90;;;;;;5029321;28;19913;-83
2022/10/19 07:23:46;;;;;;;;;;;15.20;99.90;;;;;;5047665;28;19912;-84
2022/10/19 07:26:16;;;;;;;;;;;15.10;99.90;;;;;;5048370;28;19912;-85
2022/10/19 07:28:43;;;;;;;;;;;15.20;99.90;;;;;;5029082;28;19995;-84
2022/10/19 07:31:10;;;;;;;;;;;15.20;99.90;;;;;;5047498;28;19967;-84
2022/10/19 07:33:36;;;;;;;;;;;15.20;99.90;;;;;;5047823;28;19948;-84
2022/10/19 07:36:02;;;;;;;;;;;15.40;99.90;;;;;;5029334;28;19974;-85
2022/10/19 07:38:29;;;;;;;;;;;15.50;99.90;;;;;;5029812;28;19920;-83
2022/10/19 07:41:04;;;;;;;;;;;15.60;99.90;;;;;;5046853;28;19982;-84
2022/10/19 07:43:29;;;;;;;;;;;15.70;99.90;;;;;;5029491;28;20436;-84
2022/10/19 07:46:02;;;;;;;;;;;15.80;99.90;;;;;;5029975;28;19955;-84
2022/10/19 07:48:28;;;;;;;;;;;16.00;99.90;;;;;;5035421;28;19967;-84
2022/10/19 07:50:53;;;;;;;;;;;16.40;99.90;;;;;;5028369;28;19920;-85
2022/10/19 07:53:19;;;;;;;;;;;16.40;99.90;;;;;;5029477;28;19967;-85
2022/10/19 07:55:44;;;;;;;;;;;16.20;99.90;;;;;;5046983;28;19920;-84
2022/10/19 07:58:10;;;;;;;;;;;16.40;99.90;;;;;;5047139;28;19917;-84
2022/10/19 08:00:36;;;;;;;;;;;16.40;99.90;;;;;;5047459;28;19913;-84
2022/10/19 08:03:01;;;;;;;;;;;16.40;99.90;;;;;;5047322;28;19920;-84
2022/10/19 08:05:27;;;;;;;;;;;16.50;99.90;;;;;;5046592;28;19912;-83
2022/10/19 08:07:52;;;;;;;;;;;17.00;99.90;;;;;;5046965;28;19999;-84
2022/10/19 08:10:18;;;;;;;;;;;17.70;99.90;;;;;;5046494;28;19967;-83
2022/10/19 08:12:43;;;;;;;;;;;17.10;99.90;;;;;;5028518;28;19928;-84
2022/10/19 08:15:09;;;;;;;;;;;16.90;99.90;;;;;;5028742;28;20447;-84
2022/10/19 08:17:38;;;;;;;;;;;16.60;99.90;;;;;;5046737;28;19919;-84
2022/10/19 08:20:05;;;;;;;;;;;16.50;99.90;;;;;;5029012;28;19916;-84
2022/10/19 08:22:30;;;;;;;;;;;16.40;99.90;;;;;;5046235;28;19913;-84
2022/10/19 08:24:56;;;;;;;;;;;16.40;99.90;;;;;;5047232;28;20458;-83
2022/10/19 08:27:21;;;;;;;;;;;16.60;99.90;;;;;;5027380;28;20288;-84
2022/10/19 08:29:47;;;;;;;;;;;16.50;99.90;;;;;;5020361;28;19991;-84
2022/10/19 08:32:12;;;;;;;;;;;16.60;99.90;;;;;;5028971;28;19917;-84
2022/10/19 08:34:38;;;;;;;;;;;16.70;99.90;;;;;;5029548;28;19923;-84
2022/10/19 08:37:04;;;;;;;;;;;16.70;99.90;;;;;;5030352;28;20848;-84
2022/10/19 08:39:29;;;;;;;;;;;16.60;99.90;;;;;;5034342;28;19919;-84
2022/10/19 08:41:55;;;;;;;;;;;16.70;99.90;;;;;;5049877;28;19917;-84
2022/10/19 08:44:30;;;;;;;;;;;16.90;99.90;;;;;;5032739;28;20423;-84
2022/10/19 08:47:14;;;;;;;;;;;17.00;99.90;;;;;;5053399;28;20031;-84
2022/10/19 08:49:40;;;;;;;;;;;17.10;99.90;;;;;;5050812;28;19963;-84
2022/10/19 08:52:25;;;;;;;;;;;17.10;99.90;;;;;;5050366;28;20478;-85
2022/10/19 08:54:55;;;;;;;;;;;17.10;99.90;;;;;;5049698;28;19947;-84
2022/10/19 08:57:29;;;;;;;;;;;17.10;99.90;;;;;;5055259;28;19964;-84
2022/10/19 09:00:06;;;;;;;;;;;17.50;99.90;;;;;;5046018;28;19944;-83
2022/10/19 09:02:35;;;;;;;;;;;17.30;99.90;;;;;;5050231;28;19913;-84
2022/10/19 09:05:07;;;;;;;;;;;17.70;99.90;;;;;;5050306;28;19917;-84
2022/10/19 09:07:36;;;;;;;;;;;17.90;99.90;;;;;;5050220;28;19917;-84
2022/10/19 09:10:14;;;;;;;;;;;17.80;99.90;;;;;;5050102;28;19921;-84
2022/10/19 09:12:46;;;;;;;;;;;17.90;99.90;;;;;;5049735;28;19920;-84
2022/10/19 09:15:16;;;;;;;;;;;18.30;99.90;;;;;;5057256;28;19928;-84
2022/10/19 09:17:42;;;;;;;;;;;18.10;99.90;;;;;;5043268;28;20288;-84
2022/10/19 09:20:21;;;;;;;;;;;18.50;99.80;;;;;;5049581;28;19913;-84
2022/10/19 09:22:55;;;;;;;;;;;18.90;99.50;;;;;;5049822;28;19919;-84
2022/10/19 09:25:21;;;;;;;;;;;19.00;99.60;;;;;;5049539;28;19920;-84
2022/10/19 09:27:48;;;;;;;;;;;18.90;98.90;;;;;;5031980;28;19920;-84
2022/10/19 09:30:16;;;;;;;;;;;19.50;98.90;;;;;;5031181;28;19932;-84
2022/10/19 09:32:41;;;;;;;;;;;19.80;97.50;;;;;;5039263;28;20696;-84
2022/10/19 09:35:19;;;;;;;;;;;20.50;97.60;;;;;;5031769;28;20357;-84
2022/10/19 09:37:47;;;;;;;;;;;20.50;96.10;;;;;;5039370;28;20747;-83
2022/10/19 09:40:21;;;;;;;;;;;20.40;96.90;;;;;;5048820;28;19917;-84
2022/10/19 09:42:55;;;;;;;;;;;20.30;99.50;;;;;;5040618;28;19936;-84
2022/10/19 09:45:37;;;;;;;;;;;20.30;97.50;;;;;;5030990;28;19916;-84
2022/10/19 09:48:04;;;;;;;;;;;20.90;96.80;;;;;;5048783;28;19912;-84
2022/10/19 09:50:30;;;;;;;;;;;21.10;99.90;;;;;;5048162;28;20006;-84
2022/10/19 09:53:02;;;;;;;;;;;21.40;99.30;;;;;;5031535;28;20375;-84
2022/10/19 09:55:38;;;;;;;;;;;21.70;95.80;;;;;;5048905;28;19980;-84
2022/10/19 09:58:12;;;;;;;;;;;21.90;96.00;;;;;;5049392;28;20447;-84
2022/10/19 10:00:41;;;;;;;;;;;22.10;92.60;;;;;;5042643;28;19948;-83
2022/10/19 10:03:12;;;;;;;;;;;22.20;92.60;;;;;;5031752;28;19935;-84
2022/10/19 10:05:38;;;;;;;;;;;22.60;90.80;;;;;;5043470;28;20020;-84
2022/10/19 10:08:11;;;;;;;;;;;22.30;90.80;;;;;;5049678;28;19917;-84
2022/10/19 10:10:38;;;;;;;;;;;22.40;89.80;;;;;;5045977;28;19987;-84
2022/10/19 10:13:04;;;;;;;;;;;22.60;89.80;;;;;;5049496;28;19959;-84
2022/10/19 10:15:35;;;;;;;;;;;22.60;90.00;;;;;;5048679;28;19921;-84
2022/10/19 10:18:01;;;;;;;;;;;22.50;88.70;;;;;;5031124;28;19913;-84
2022/10/19 10:20:29;;;;;;;;;;;22.30;88.40;;;;;;5048679;28;19912;-84
2022/10/19 10:22:59;;;;;;;;;;;22.20;88.90;;;;;;5030353;28;19994;-83
2022/10/19 10:25:27;;;;;;;;;;;22.20;90.00;;;;;;5030631;28;19913;-83
2022/10/19 10:27:54;;;;;;;;;;;22.20;89.70;;;;;;5042536;28;19939;-83
2022/10/19 10:30:20;;;;;;;;;;;22.20;90.30;;;;;;5043537;28;19919;-84
2022/10/19 10:32:50;;;;;;;;;;;22.10;90.80;;;;;;5031059;28;20530;-83
2022/10/19 10:35:20;;;;;;;;;;;22.00;91.30;;;;;;5048396;28;19921;-83
2022/10/19 10:37:46;;;;;;;;;;;22.00;91.20;;;;;;5030317;28;19939;-83
2022/10/19 10:40:20;;;;;;;;;;;21.90;91.50;;;;;;5029884;28;20008;-83
2022/10/19 10:42:46;;;;;;;;;;;22.00;91.50;;;;;;5039418;28;19912;-83
2022/10/19 10:45:17;;;;;;;;;;;22.10;91.40;;;;;;5033172;28;19923;-82
2022/10/19 10:47:47;;;;;;;;;;;22.20;91.70;;;;;;5048452;28;19924;-83
2022/10/19 10:50:33;;;;;;;;;;;22.20;92.00;;;;;;5045458;28;19924;-85
2022/10/19 10:53:04;;;;;;;;;;;22.10;92.40;;;;;;5025941;28;20008;-84
2022/10/19 10:55:30;;;;;;;;;;;22.10;92.70;;;;;;5033625;28;19916;-84
2022/10/19 10:58:14;;;;;;;;;;;22.20;92.40;;;;;;5027259;28;19913;-84
2022/10/19 11:00:39;;;;;;;;;;;22.20;92.20;;;;;;5039933;28;20463;-84
2022/10/19 11:03:17;;;;;;;;;;;22.40;92.30;;;;;;5029865;28;19924;-84
2022/10/19 11:05:51;;;;;;;;;;;22.60;92.10;;;;;;5038999;28;19928;-83
2022/10/19 11:08:17;;;;;;;;;;;22.80;91.50;;;;;;5036097;28;19913;-84
2022/10/19 11:10:46;;;;;;;;;;;22.80;91.40;;;;;;5036344;28;20498;-84
2022/10/19 11:13:15;;;;;;;;;;;22.90;91.20;;;;;;5029172;28;20667;-84
2022/10/19 11:15:50;;;;;;;;;;;23.10;90.90;;;;;;5032825;28;20442;-84
2022/10/19 11:18:19;;;;;;;;;;;23.40;90.60;;;;;;5034137;28;19917;-84
2022/10/19 11:20:52;;;;;;;;;;;23.60;90.80;;;;;;5013122;28;19912;-84
2022/10/19 11:23:29;;;;;;;;;;;23.40;91.00;;;;;;5030693;28;19917;-84
2022/10/19 11:26:13;;;;;;;;;;;23.20;91.00;;;;;;5028523;28;19913;-84
2022/10/19 11:28:48;;;;;;;;;;;23.20;90.80;;;;;;5028641;28;20215;-84
2022/10/19 11:31:16;;;;;;;;;;;23.30;90.70;;;;;;5028388;28;20446;-85
2022/10/19 11:33:44;;;;;;;;;;;23.40;90.50;;;;;;5031094;28;19913;-84
2022/10/19 11:36:21;;;;;;;;;;;23.40;90.30;;;;;;5034861;28;19921;-84
2022/10/19 11:38:55;;;;;;;;;;;23.50;90.20;;;;;;5026536;28;19917;-84
2022/10/19 11:41:36;;;;;;;;;;;23.60;90.10;;;;;;5042791;28;19927;-84
2022/10/19 11:44:14;;;;;;;;;;;23.70;90.50;;;;;;5018355;28;19917;-84
2022/10/19 11:46:58;;;;;;;;;;;23.70;90.10;;;;;;5012860;28;19913;-85
2022/10/19 11:49:46;;;;;;;;;;;23.60;91.40;;;;;;5046201;28;19921;-84
2022/10/19 11:52:30;;;;;;;;;;;23.50;91.60;;;;;;5045962;28;19994;-83
2022/10/19 11:54:55;;;;;;;;;;;23.50;91.00;;;;;;5046557;28;19923;-85
2022/10/19 11:57:34;;;;;;;;;;;23.40;90.90;;;;;;5021250;28;20279;-85
2022/10/19 12:00:00;;;;;;;;;;;23.50;91.30;;;;;;5042785;28;19917;-86
2022/10/19 12:02:25;;;;;;;;;;;23.40;90.70;;;;;;5025325;28;19921;-85
2022/10/19 12:04:56;;;;;;;;;;;23.40;91.30;;;;;;5030733;28;19948;-84
2022/10/19 12:07:44;;;;;;;;;;;23.40;90.90;;;;;;5033924;28;20932;-85
2022/10/19 12:10:27;;;;;;;;;;;23.40;90.70;;;;;;5023911;28;20659;-85
2022/10/19 12:12:59;;;;;;;;;;;23.30;90.80;;;;;;5031764;28;19913;-85
2022/10/19 12:15:28;;;;;;;;;;;23.30;91.10;;;;;;5050677;28;19921;-84
2022/10/19 12:17:56;;;;;;;;;;;23.40;90.90;;;;;;5050474;28;20463;-84
2022/10/19 12:20:21;;;;;;;;;;;23.40;90.70;;;;;;5031369;28;19990;-84
2022/10/19 12:22:48;;;;;;;;;;;23.60;91.20;;;;;;5044247;28;19913;-85
2022/10/19 12:25:14;;;;;;;;;;;23.50;91.40;;;;;;5044006;28;19985;-85
2022/10/19 12:27:40;;;;;;;;;;;23.50;91.40;;;;;;5032414;28;19920;-84
2022/10/19 12:30:13;;;;;;;;;;;23.60;92.00;;;;;;5030652;28;19980;-84
2022/10/19 12:32:46;;;;;;;;;;;23.70;91.60;;;;;;5050805;28;19963;-84
2022/10/19 12:35:35;;;;;;;;;;;23.70;91.50;;;;;;5051708;28;19916;-84
2022/10/19 12:38:00;;;;;;;;;;;23.70;91.10;;;;;;5033402;28;19913;-84
2022/10/19 12:40:36;;;;;;;;;;;23.80;90.90;;;;;;5050280;28;19923;-85
2022/10/19 12:43:20;;;;;;;;;;;23.70;90.70;;;;;;5050089;28;20302;-85
2022/10/19 12:45:50;;;;;;;;;;;23.50;90.80;;;;;;5031958;28;19919;-85
2022/10/19 12:48:20;;;;;;;;;;;23.40;90.90;;;;;;5050207;28;19920;-84
2022/10/19 12:50:49;;;;;;;;;;;23.30;91.90;;;;;;5023536;28;19912;-85
2022/10/19 12:53:25;;;;;;;;;;;23.30;91.40;;;;;;5032150;28;20483;-84
2022/10/19 12:56:02;;;;;;;;;;;23.30;91.10;;;;;;5019924;28;19964;-84
2022/10/19 12:58:40;;;;;;;;;;;23.20;91.70;;;;;;5046634;28;19921;-85
2022/10/19 13:01:06;;;;;;;;;;;23.20;91.60;;;;;;5048771;28;19924;-84
2022/10/19 13:03:33;;;;;;;;;;;23.10;91.20;;;;;;5049517;28;19916;-84
2022/10/19 13:06:19;;;;;;;;;;;23.00;91.80;;;;;;5031087;28;20356;-85
2022/10/19 13:08:47;;;;;;;;;;;23.00;92.50;;;;;;5029573;28;19921;-85
2022/10/19 13:11:14;;;;;;;;;;;23.00;92.90;;;;;;5031080;28;19921;-84
2022/10/19 13:13:59;;;;;;;;;;;23.00;94.10;;;;;;5031630;28;20457;-85
2022/10/19 13:16:27;;;;;;;;;;;23.10;93.60;;;;;;5045882;28;19925;-85
2022/10/19 13:19:16;;;;;;;;;;;23.20;93.70;;;;;;5053250;28;19913;-84
2022/10/19 13:21:42;;;;;;;;;;;23.30;93.00;;;;;;5037559;28;19916;-85
2022/10/19 13:24:22;;;;;;;;;;;23.40;92.70;;;;;;5048538;28;19912;-83
2022/10/19 13:27:03;;;;;;;;;;;23.40;93.00;;;;;;5049993;28;20009;-85
2022/10/19 13:29:38;;;;;;;;;;;23.50;92.80;;;;;;5049040;28;19912;-84
2022/10/19 13:32:22;;;;;;;;;;;23.40;92.40;;;;;;5031928;28;20399;-85
2022/10/19 13:34:48;;;;;;;;;;;23.50;92.70;;;;;;5031007;28;20501;-84
2022/10/19 13:37:20;;;;;;;;;;;23.50;92.50;;;;;;5048989;28;19968;-84
2022/10/19 13:39:46;;;;;;;;;;;23.40;92.60;;;;;;5049966;28;19913;-84
2022/10/19 13:42:41;;;;;;;;;;;23.50;92.70;;;;;;5037427;28;20392;-84
2022/10/19 13:45:19;;;;;;;;;;;23.50;92.80;;;;;;5034648;28;20541;-83
2022/10/19 13:47:49;;;;;;;;;;;23.50;93.00;;;;;;5038605;28;19992;-84
2022/10/19 13:50:23;;;;;;;;;;;23.50;92.60;;;;;;5016998;28;19914;-81
2022/10/19 13:52:50;;;;;;;;;;;23.50;92.80;;;;;;5030654;28;20423;-82
2022/10/19 13:55:34;;;;;;;;;;;23.50;92.40;;;;;;5035726;28;19916;-81
2022/10/19 13:58:00;;;;;;;;;;;23.50;92.50;;;;;;5036037;28;20007;-83
2022/10/19 14:00:33;;;;;;;;;;;23.50;93.20;;;;;;5030060;28;20003;-82
2022/10/19 14:03:18;;;;;;;;;;;23.50;93.00;;;;;;5031656;28;19931;-85
2022/10/19 14:06:00;;;;;;;;;;;23.50;92.60;;;;;;5032327;28;20463;-84
2022/10/19 14:08:37;;;;;;;;;;;23.50;92.80;;;;;;5042937;28;19917;-83
2022/10/19 14:11:18;;;;;;;;;;;23.40;92.40;;;;;;5047908;28;19994;-83
2022/10/19 14:13:44;;;;;;;;;;;23.40;92.80;;;;;;5029438;28;19919;-83
2022/10/19 14:16:16;;;;;;;;;;;23.40;92.80;;;;;;5040800;28;20374;-83
2022/10/19 14:18:42;;;;;;;;;;;23.30;92.80;;;;;;5032347;28;20486;-83
2022/10/19 14:21:08;;;;;;;;;;;23.20;93.10;;;;;;5038336;28;19913;-83
2022/10/19 14:23:35;;;;;;;;;;;23.00;93.50;;;;;;5033360;28;19920;-83
2022/10/19 14:26:04;;;;;;;;;;;23.00;93.60;;;;;;5032043;28;19910;-83
2022/10/19 14:28:30;;;;;;;;;;;23.00;93.90;;;;;;5030504;28;19913;-84